Christman Field Latest Observations
Switch to metric units Other observation times Weekly graphs
| Date Time MST |
Temp °F |
RH % |
DewPt °F |
Wind mph |
Dir ° |
Gust mph |
Dir ° |
Press in Hg |
Solar W/m^2 |
Prec in |
|---|---|---|---|---|---|---|---|---|---|---|
| 2026-05-02 08:45 | 57.4 | 27.4 | 24.1 | 3.5 | 84 | 4.8 | 138 | 24.995 | 627.7 | 0.00 |
| 2026-05-02 08:40 | 57.0 | 26.6 | 23.0 | 3.7 | 126 | 5.3 | 94 | 25.000 | 615.5 | 0.00 |
| 2026-05-02 08:35 | 56.9 | 26.8 | 23.1 | 4.3 | 115 | 7.3 | 117 | 25.001 | 603.4 | 0.00 |
| 2026-05-02 08:30 | 56.7 | 28.2 | 24.1 | 3.4 | 138 | 5.8 | 124 | 25.003 | 589.9 | 0.00 |
| 2026-05-02 08:25 | 56.2 | 28.1 | 23.6 | 3.5 | 124 | 6.2 | 91 | 25.006 | 577.0 | 0.00 |
| 2026-05-02 08:20 | 55.4 | 28.6 | 23.3 | 2.6 | 87 | 5.0 | 87 | 25.005 | 563.1 | 0.00 |
| 2026-05-02 08:15 | 55.0 | 28.8 | 23.1 | 2.6 | 107 | 5.7 | 100 | 25.006 | 549.3 | 0.00 |
| 2026-05-02 08:10 | 53.7 | 28.7 | 22.0 | 2.4 | 91 | 4.9 | 138 | 25.007 | 535.1 | 0.00 |
| 2026-05-02 08:05 | 53.5 | 29.8 | 22.7 | 2.5 | 124 | 4.3 | 150 | 25.008 | 520.5 | 0.00 |
| 2026-05-02 08:00 | 52.9 | 31.1 | 23.1 | 2.9 | 163 | 4.6 | 126 | 25.010 | 506.1 | 0.00 |
| 2026-05-02 07:55 | 52.5 | 30.2 | 22.1 | 3.1 | 94 | 5.0 | 122 | 25.011 | 491.7 | 0.00 |
| 2026-05-02 07:50 | 52.1 | 32.5 | 23.5 | 3.4 | 124 | 4.9 | 147 | 25.012 | 476.7 | 0.00 |
| 2026-05-02 07:45 | 51.7 | 32.0 | 22.8 | 3.5 | 84 | 5.6 | 98 | 25.013 | 462.1 | 0.00 |
| 2026-05-02 07:40 | 50.9 | 33.3 | 23.0 | 3.6 | 89 | 6.0 | 143 | 25.013 | 446.9 | 0.00 |
| 2026-05-02 07:35 | 50.6 | 34.4 | 23.5 | 3.9 | 116 | 5.3 | 105 | 25.011 | 431.8 | 0.00 |
| 2026-05-02 07:30 | 50.5 | 34.6 | 23.6 | 3.5 | 118 | 5.0 | 112 | 25.011 | 416.1 | 0.00 |
| 2026-05-02 07:25 | 49.6 | 35.4 | 23.3 | 3.7 | 126 | 5.5 | 121 | 25.012 | 400.7 | 0.00 |
| 2026-05-02 07:20 | 49.4 | 35.5 | 23.2 | 4.0 | 133 | 5.7 | 148 | 25.012 | 385.3 | 0.00 |
| 2026-05-02 07:15 | 48.9 | 37.2 | 23.9 | 3.1 | 164 | 5.3 | 135 | 25.013 | 370.0 | 0.00 |
| 2026-05-02 07:10 | 48.7 | 37.7 | 24.0 | 3.3 | 159 | 4.3 | 155 | 25.013 | 355.0 | 0.00 |
| 2026-05-02 07:05 | 48.3 | 40.1 | 25.1 | 2.7 | 113 | 3.9 | 127 | 25.014 | 339.4 | 0.00 |
| 2026-05-02 07:00 | 47.8 | 41.6 | 25.6 | 3.1 | 100 | 4.3 | 114 | 25.014 | 323.9 | 0.00 |
| 2026-05-02 06:55 | 47.4 | 42.2 | 25.5 | 2.7 | 99 | 4.4 | 141 | 25.015 | 308.4 | 0.00 |
| 2026-05-02 06:50 | 47.2 | 42.3 | 25.5 | 2.1 | 141 | 3.2 | 148 | 25.016 | 293.4 | 0.00 |
| 2026-05-02 06:45 | 46.6 | 46.9 | 27.4 | 1.9 | 134 | 2.8 | 128 | 25.017 | 278.2 | 0.00 |
| 2026-05-02 06:40 | 45.9 | 47.1 | 26.9 | 2.0 | 137 | 2.8 | 134 | 25.016 | 262.9 | 0.00 |
| 2026-05-02 06:35 | 45.3 | 49.1 | 27.3 | 2.1 | 161 | 2.9 | 148 | 25.014 | 247.7 | 0.00 |
| 2026-05-02 06:30 | 44.8 | 47.6 | 26.1 | 1.8 | 140 | 2.6 | 128 | 25.015 | 232.4 | 0.00 |
| 2026-05-02 06:25 | 44.2 | 48.4 | 25.9 | 1.8 | 154 | 2.5 | 131 | 25.015 | 217.7 | 0.00 |
| 2026-05-02 06:20 | 43.4 | 50.5 | 26.3 | 1.9 | 136 | 2.6 | 146 | 25.013 | 202.9 | 0.00 |